createdAt,value
2023-01-19T00:00:53.112Z,-0.22
2023-01-19T00:03:19.761Z,-0.22
2023-01-19T00:05:46.462Z,-0.21
2023-01-19T00:08:16.780Z,-0.20
2023-01-19T00:10:48.427Z,-0.21
2023-01-19T00:13:15.762Z,-0.20
2023-01-19T00:15:42.517Z,-0.18
2023-01-19T00:18:10.887Z,-0.19
2023-01-19T00:20:41.426Z,-0.19
2023-01-19T00:23:08.939Z,-0.19
2023-01-19T00:25:42.317Z,-0.19
2023-01-19T00:28:12.266Z,-0.19
2023-01-19T00:30:40.054Z,-0.18
2023-01-19T00:33:06.787Z,-0.18
2023-01-19T00:35:35.115Z,-0.17
2023-01-19T00:38:02.930Z,-0.16
2023-01-19T00:40:29.639Z,-0.16
2023-01-19T00:42:56.312Z,-0.15
2023-01-19T00:45:24.413Z,-0.17
2023-01-19T00:47:56.870Z,-0.17
2023-01-19T00:50:25.036Z,-0.18
2023-01-19T00:52:53.896Z,-0.17
2023-01-19T00:55:21.086Z,-0.18
2023-01-19T00:57:47.769Z,-0.20
2023-01-19T01:00:22.062Z,-0.21
2023-01-19T01:02:50.541Z,-0.22
2023-01-19T01:05:18.174Z,-0.22
2023-01-19T01:07:45.299Z,-0.23
2023-01-19T01:10:15.276Z,-0.25
2023-01-19T01:12:56.177Z,-0.26
2023-01-19T01:15:27.750Z,-0.25
2023-01-19T01:17:54.789Z,-0.25
2023-01-19T01:20:25.314Z,-0.27
2023-01-19T01:22:53.757Z,-0.26
2023-01-19T01:25:23.757Z,-0.23
2023-01-19T01:27:51.193Z,-0.24
2023-01-19T01:30:18.528Z,-0.24
2023-01-19T01:32:45.216Z,-0.22
2023-01-19T01:35:12.643Z,-0.21
2023-01-19T01:37:39.797Z,-0.20
2023-01-19T01:40:07.408Z,-0.20
2023-01-19T01:42:34.755Z,-0.19
2023-01-19T01:45:06.204Z,-0.19
2023-01-19T01:47:36.480Z,-0.18
2023-01-19T01:50:25.365Z,-0.19
2023-01-19T01:53:07.699Z,-0.17
2023-01-19T01:55:37.317Z,-0.19
2023-01-19T01:58:06.074Z,-0.22
2023-01-19T02:00:52.880Z,-0.22
2023-01-19T02:03:22.042Z,-0.22
2023-01-19T02:05:49.216Z,-0.21
2023-01-19T02:08:41.598Z,-0.21
2023-01-19T02:11:27.512Z,-0.20
2023-01-19T02:13:54.329Z,-0.18
2023-01-19T02:16:20.991Z,-0.17
2023-01-19T02:18:47.808Z,-0.16
2023-01-19T02:21:23.415Z,-0.15
2023-01-19T02:23:55.723Z,-0.13
2023-01-19T02:26:34.405Z,-0.11
2023-01-19T02:29:04.297Z,-0.10
2023-01-19T02:31:33.662Z,-0.08
2023-01-19T02:34:01.933Z,-0.07
2023-01-19T02:36:42.966Z,-0.05
2023-01-19T02:39:11.217Z,-0.04
2023-01-19T02:41:52.726Z,-0.03
2023-01-19T02:44:21.126Z,-0.02
2023-01-19T02:46:47.791Z,-0.02
2023-01-19T02:49:14.688Z,-0.02
2023-01-19T02:51:44.085Z,-0.03
2023-01-19T02:54:32.191Z,-0.03
2023-01-19T02:57:24.503Z,-0.02
2023-01-19T02:59:57.135Z,-0.05
2023-01-19T03:02:34.449Z,-0.03
2023-01-19T03:05:23.752Z,-0.04
2023-01-19T03:08:15.989Z,-0.04
2023-01-19T03:10:51.507Z,-0.04
2023-01-19T03:13:39.443Z,-0.05
2023-01-19T03:16:23.061Z,-0.04
2023-01-19T03:19:12.697Z,-0.06
2023-01-19T03:21:43.558Z,-0.06
2023-01-19T03:24:12.441Z,-0.06
2023-01-19T03:26:44.159Z,-0.05
2023-01-19T03:29:14.112Z,-0.07
2023-01-19T03:31:44.660Z,-0.06
2023-01-19T03:34:15.154Z,-0.07
2023-01-19T03:36:51.804Z,-0.07
2023-01-19T03:39:22.589Z,-0.06
2023-01-19T03:41:54.156Z,-0.04
2023-01-19T03:44:23.745Z,-0.04
2023-01-19T03:46:51.061Z,-0.02
2023-01-19T03:49:18.003Z,-0.01
2023-01-19T03:51:44.942Z,-0.01
2023-01-19T03:54:12.004Z,0.02
2023-01-19T03:56:38.880Z,0.03
2023-01-19T03:59:08.400Z,0.03
2023-01-19T04:01:35.125Z,0.03
2023-01-19T04:04:01.867Z,0.03
2023-01-19T04:06:28.528Z,0.02
2023-01-19T04:08:55.180Z,0.03
2023-01-19T04:11:21.863Z,0.02
2023-01-19T04:13:48.492Z,0.01
2023-01-19T04:16:20.025Z,0.02
2023-01-19T04:18:48.418Z,0.00
2023-01-19T04:21:15.438Z,0.00
2023-01-19T04:23:44.406Z,-0.01
2023-01-19T04:26:11.084Z,-0.03
2023-01-19T04:28:37.934Z,-0.04
2023-01-19T04:31:06.887Z,-0.07
2023-01-19T04:33:34.491Z,-0.09
2023-01-19T04:36:01.728Z,-0.12
2023-01-19T04:38:28.468Z,-0.14
2023-01-19T04:40:55.725Z,-0.17
2023-01-19T04:43:23.480Z,-0.19
2023-01-19T04:45:50.519Z,-0.21
2023-01-19T04:48:18.590Z,-0.22
2023-01-19T04:50:45.714Z,-0.24
2023-01-19T04:53:13.816Z,-0.25
2023-01-19T04:55:40.798Z,-0.27
2023-01-19T04:58:07.485Z,-0.29
2023-01-19T05:00:34.160Z,-0.31
2023-01-19T05:03:01.834Z,-0.32
2023-01-19T05:05:28.833Z,-0.35
2023-01-19T05:07:55.687Z,-0.36
2023-01-19T05:10:22.385Z,-0.39
2023-01-19T05:12:49.579Z,-0.38
2023-01-19T05:15:16.348Z,-0.39
2023-01-19T05:17:43.118Z,-0.40
2023-01-19T05:20:13.355Z,-0.42
2023-01-19T05:22:41.671Z,-0.45
2023-01-19T05:25:08.825Z,-0.46
2023-01-19T05:27:36.665Z,-0.48
2023-01-19T05:30:05.068Z,-0.50
2023-01-19T05:32:31.699Z,-0.52
2023-01-19T05:34:58.379Z,-0.53
2023-01-19T05:37:25.045Z,-0.53
2023-01-19T05:39:51.930Z,-0.54
2023-01-19T05:42:18.528Z,-0.55
2023-01-19T05:44:45.163Z,-0.56
2023-01-19T05:47:11.891Z,-0.59
2023-01-19T05:49:38.500Z,-0.60
2023-01-19T05:52:06.333Z,-0.62
2023-01-19T05:54:33.126Z,-0.62
2023-01-19T05:56:59.832Z,-0.63
2023-01-19T05:59:26.513Z,-0.63
2023-01-19T06:01:53.896Z,-0.64
2023-01-19T06:04:21.278Z,-0.64
2023-01-19T06:06:49.134Z,-0.63
2023-01-19T06:09:17.312Z,-0.63
2023-01-19T06:11:45.219Z,-0.64
2023-01-19T06:14:12.167Z,-0.65
2023-01-19T06:16:39.132Z,-0.65
2023-01-19T06:19:05.832Z,-0.65
2023-01-19T06:21:32.997Z,-0.62
2023-01-19T06:23:59.697Z,-0.58
2023-01-19T06:26:27.622Z,-0.55
2023-01-19T06:28:55.165Z,-0.51
2023-01-19T06:31:23.257Z,-0.47
2023-01-19T06:33:50.194Z,-0.43
2023-01-19T06:36:16.855Z,-0.39
2023-01-19T06:38:43.509Z,-0.35
2023-01-19T06:41:10.110Z,-0.31
2023-01-19T06:43:36.727Z,-0.30
2023-01-19T06:46:04.094Z,-0.27
2023-01-19T06:48:30.875Z,-0.25
2023-01-19T06:50:59.548Z,-0.23
2023-01-19T06:53:28.384Z,-0.21
2023-01-19T06:56:02.070Z,-0.20
2023-01-19T06:58:30.778Z,-0.18
2023-01-19T07:01:03.375Z,-0.17
2023-01-19T07:03:30.614Z,-0.16
2023-01-19T07:05:57.520Z,-0.17
2023-01-19T07:08:24.393Z,-0.17
2023-01-19T07:11:26.742Z,-0.15
2023-01-19T07:13:40.242Z,-0.15
2023-01-19T07:16:09.405Z,-0.16
2023-01-19T07:18:37.749Z,-0.15
2023-01-19T07:21:05.780Z,-0.15
2023-01-19T07:23:32.868Z,-0.15
2023-01-19T07:26:03.826Z,-0.15
2023-01-19T07:28:31.734Z,-0.16
2023-01-19T07:30:58.776Z,-0.14
2023-01-19T07:33:26.281Z,-0.13
2023-01-19T07:35:53.288Z,-0.12
2023-01-19T07:38:20.455Z,-0.12
2023-01-19T07:40:47.207Z,-0.10
2023-01-19T07:43:15.016Z,-0.10
2023-01-19T07:45:42.043Z,-0.10
2023-01-19T07:48:09.072Z,-0.08
2023-01-19T07:50:35.714Z,-0.09
2023-01-19T07:53:08.387Z,-0.08
2023-01-19T07:55:35.829Z,-0.07
2023-01-19T07:58:07.277Z,-0.07
2023-01-19T08:00:38.204Z,-0.07
2023-01-19T08:03:05.530Z,-0.07
2023-01-19T08:05:33.305Z,-0.06
2023-01-19T08:08:00.641Z,-0.06
2023-01-19T08:10:28.720Z,-0.05
2023-01-19T08:12:57.031Z,-0.05
2023-01-19T08:15:24.826Z,-0.05
2023-01-19T08:18:01.935Z,-0.05
2023-01-19T08:20:29.648Z,-0.06
2023-01-19T08:23:05.612Z,-0.04
2023-01-19T08:25:38.045Z,-0.02
2023-01-19T08:28:06.272Z,-0.01
2023-01-19T08:30:33.655Z,-0.01
2023-01-19T08:33:08.401Z,0.02
2023-01-19T08:35:37.923Z,0.04
2023-01-19T08:38:06.095Z,0.05
2023-01-19T08:40:36.028Z,0.06
2023-01-19T08:43:14.830Z,0.06
2023-01-19T08:45:49.926Z,0.09
2023-01-19T08:48:18.743Z,0.11
2023-01-19T08:50:47.452Z,0.13
2023-01-19T08:53:15.162Z,0.13
2023-01-19T08:55:42.347Z,0.16
2023-01-19T08:58:09.853Z,0.17
2023-01-19T09:00:38.212Z,0.18
2023-01-19T09:03:07.284Z,0.19
2023-01-19T09:05:37.402Z,0.20
2023-01-19T09:08:06.272Z,0.21
2023-01-19T09:10:36.205Z,0.23
2023-01-19T09:13:08.370Z,0.24
2023-01-19T09:15:37.845Z,0.27
2023-01-19T09:18:07.101Z,0.28
2023-01-19T09:20:36.142Z,0.30
2023-01-19T09:23:03.004Z,0.31
2023-01-19T09:25:29.747Z,0.34
2023-01-19T09:28:02.845Z,0.36
2023-01-19T09:30:29.794Z,0.38
2023-01-19T09:32:58.047Z,0.39
2023-01-19T09:35:26.017Z,0.41
2023-01-19T09:37:52.788Z,0.42
2023-01-19T09:40:23.489Z,0.41
2023-01-19T09:43:05.149Z,0.40
2023-01-19T09:45:39.855Z,0.39
2023-01-19T09:48:28.937Z,0.40
2023-01-19T09:50:59.558Z,0.41
2023-01-19T09:53:45.033Z,0.43
2023-01-19T09:56:15.293Z,0.47
2023-01-19T09:58:42.488Z,0.52
2023-01-19T10:01:23.172Z,0.60
2023-01-19T10:03:54.934Z,0.66
2023-01-19T10:06:23.241Z,0.73
2023-01-19T10:09:09.810Z,0.81
2023-01-19T10:11:52.099Z,0.88
2023-01-19T10:14:43.370Z,0.96
2023-01-19T10:17:38.067Z,0.98
2023-01-19T10:20:13.109Z,1.01
2023-01-19T10:22:43.438Z,1.00
2023-01-19T10:25:19.426Z,1.01
2023-01-19T10:27:46.751Z,1.00
2023-01-19T10:30:26.282Z,1.02
2023-01-19T10:32:53.423Z,1.02
2023-01-19T10:35:25.071Z,1.04
2023-01-19T10:37:56.657Z,1.04
2023-01-19T10:40:37.538Z,1.09
2023-01-19T10:43:38.345Z,1.16
2023-01-19T10:46:28.175Z,1.29
2023-01-19T10:48:56.020Z,1.39
2023-01-19T10:51:23.389Z,1.49
2023-01-19T10:53:59.408Z,1.60
2023-01-19T10:56:31.757Z,1.68
2023-01-19T10:59:04.020Z,1.74
2023-01-19T11:01:36.011Z,1.77
2023-01-19T11:04:28.740Z,1.80
2023-01-19T11:07:19.120Z,1.78
2023-01-19T11:09:47.098Z,1.71
2023-01-19T11:12:22.948Z,1.65
2023-01-19T11:14:51.860Z,1.60
2023-01-19T11:17:26.265Z,1.53
2023-01-19T11:19:56.319Z,1.52
2023-01-19T11:22:27.945Z,1.50
2023-01-19T11:24:58.988Z,1.53
2023-01-19T11:27:26.244Z,1.55
2023-01-19T11:30:21.054Z,1.57
2023-01-19T11:32:49.374Z,1.59
2023-01-19T11:35:37.051Z,1.59
2023-01-19T11:38:12.807Z,1.62
2023-01-19T11:40:41.922Z,1.63
2023-01-19T11:43:13.512Z,1.65
2023-01-19T11:45:40.506Z,1.68
2023-01-19T11:48:11.101Z,1.72
2023-01-19T11:50:43.828Z,1.73
2023-01-19T11:53:25.491Z,1.76
2023-01-19T11:56:20.603Z,1.78
2023-01-19T11:58:47.472Z,1.79
2023-01-19T12:01:24.864Z,1.82
2023-01-19T12:04:04.564Z,1.87
2023-01-19T12:06:34.275Z,1.90
2023-01-19T12:09:11.745Z,1.94
2023-01-19T12:11:43.521Z,1.95
2023-01-19T12:14:23.118Z,1.98
2023-01-19T12:16:53.284Z,2.01
2023-01-19T12:19:34.722Z,2.04
2023-01-19T12:22:02.929Z,2.08
2023-01-19T12:24:42.311Z,2.11
2023-01-19T12:27:45.622Z,2.13
2023-01-19T12:30:21.373Z,2.17
2023-01-19T12:32:48.380Z,2.21
2023-01-19T12:35:52.639Z,2.25
2023-01-19T12:38:53.546Z,2.26
2023-01-19T12:41:25.325Z,2.30
2023-01-19T12:44:10.405Z,2.32
2023-01-19T12:46:39.664Z,2.36
2023-01-19T12:49:12.423Z,2.40
2023-01-19T12:51:39.063Z,2.47
2023-01-19T12:54:08.457Z,2.51
2023-01-19T12:56:38.417Z,2.53
2023-01-19T12:59:06.510Z,2.56
2023-01-19T13:01:33.395Z,2.59
2023-01-19T13:04:25.949Z,2.64
2023-01-19T13:06:52.605Z,2.67
2023-01-19T13:09:33.988Z,2.72
2023-01-19T13:12:22.490Z,2.74
2023-01-19T13:14:50.833Z,2.80
2023-01-19T13:17:36.265Z,2.83
2023-01-19T13:20:23.231Z,2.89
2023-01-19T13:22:50.700Z,2.93
2023-01-19T13:25:36.300Z,2.99
2023-01-19T13:28:09.299Z,3.04
2023-01-19T13:30:37.390Z,3.08
2023-01-19T13:33:13.734Z,3.15
2023-01-19T13:35:40.426Z,3.20
2023-01-19T13:38:11.321Z,3.23
2023-01-19T13:40:39.097Z,3.29
2023-01-19T13:43:17.831Z,3.36
2023-01-19T13:45:51.138Z,3.42
2023-01-19T13:48:24.306Z,3.51
2023-01-19T13:51:06.039Z,3.60
2023-01-19T13:53:33.103Z,3.69
2023-01-19T13:56:07.590Z,3.77
2023-01-19T13:58:34.248Z,3.87
2023-01-19T14:01:01.155Z,3.93
2023-01-19T14:03:27.921Z,4.01
2023-01-19T14:05:55.001Z,4.09
2023-01-19T14:08:23.017Z,4.15
2023-01-19T14:10:56.358Z,4.17
2023-01-19T14:13:32.030Z,4.20
2023-01-19T14:16:04.285Z,4.21
2023-01-19T14:18:33.497Z,4.25
2023-01-19T14:21:01.931Z,4.28
2023-01-19T14:23:44.245Z,4.35
2023-01-19T14:26:46.425Z,4.40
2023-01-19T14:29:18.700Z,4.42
2023-01-19T14:32:06.692Z,4.46
2023-01-19T14:34:45.008Z,4.43
2023-01-19T14:37:27.240Z,4.39
2023-01-19T14:39:59.371Z,4.32
2023-01-19T14:42:33.449Z,4.25
2023-01-19T14:45:03.005Z,4.09
2023-01-19T14:47:29.761Z,3.95
2023-01-19T14:50:00.575Z,3.82
2023-01-19T14:52:34.849Z,3.73
2023-01-19T14:55:03.989Z,3.67
2023-01-19T14:57:30.611Z,3.63
2023-01-19T14:59:57.339Z,3.58
2023-01-19T15:02:24.028Z,3.54
2023-01-19T15:04:55.173Z,3.52
2023-01-19T15:07:24.323Z,3.48
2023-01-19T15:09:51.698Z,3.45
2023-01-19T15:12:18.979Z,3.42
2023-01-19T15:14:45.936Z,3.40
2023-01-19T15:17:27.399Z,3.39
2023-01-19T15:19:55.261Z,3.37
2023-01-19T15:22:22.744Z,3.33
2023-01-19T15:24:49.807Z,3.30
2023-01-19T15:27:17.047Z,3.29
2023-01-19T15:29:43.771Z,3.28
2023-01-19T15:32:14.784Z,3.25
2023-01-19T15:34:42.125Z,3.23
2023-01-19T15:37:09.175Z,3.21
2023-01-19T15:39:35.920Z,3.18
2023-01-19T15:42:02.648Z,3.17
2023-01-19T15:44:30.206Z,3.16
2023-01-19T15:46:57.514Z,3.12
2023-01-19T15:49:24.357Z,3.12
2023-01-19T15:51:51.070Z,3.10
2023-01-19T15:54:18.709Z,3.05
2023-01-19T15:56:45.391Z,3.04
2023-01-19T15:59:12.116Z,3.00
2023-01-19T16:01:40.254Z,2.98
2023-01-19T16:04:09.610Z,2.94
2023-01-19T16:06:36.229Z,2.93
2023-01-19T16:09:03.914Z,2.88
2023-01-19T16:11:35.190Z,2.87
2023-01-19T16:14:02.108Z,2.85
2023-01-19T16:16:28.843Z,2.82
2023-01-19T16:18:55.709Z,2.80
2023-01-19T16:21:22.608Z,2.76
2023-01-19T16:23:49.533Z,2.71
2023-01-19T16:26:34.787Z,2.64
2023-01-19T16:29:08.768Z,2.60
2023-01-19T16:31:36.483Z,2.56
2023-01-19T16:34:03.784Z,2.52
2023-01-19T16:36:32.672Z,2.50
2023-01-19T16:39:05.936Z,2.44
2023-01-19T16:41:33.858Z,2.41
2023-01-19T16:44:00.875Z,2.37
2023-01-19T16:46:30.598Z,2.35
2023-01-19T16:49:03.061Z,2.33
2023-01-19T16:51:29.926Z,2.31
2023-01-19T16:53:56.828Z,2.29
2023-01-19T16:56:24.056Z,2.25
2023-01-19T16:58:55.692Z,2.16
2023-01-19T17:01:23.911Z,2.12
2023-01-19T17:03:51.075Z,2.08
2023-01-19T17:06:20.212Z,2.03
2023-01-19T17:08:47.439Z,2.03
2023-01-19T17:11:19.631Z,2.00
2023-01-19T17:14:08.948Z,1.99
2023-01-19T17:16:36.090Z,1.96
2023-01-19T17:19:05.417Z,1.94
2023-01-19T17:21:32.361Z,1.91
2023-01-19T17:23:59.485Z,1.87
2023-01-19T17:26:31.208Z,1.83
2023-01-19T17:29:06.444Z,1.78
2023-01-19T17:31:34.054Z,1.76
2023-01-19T17:34:01.105Z,1.72
2023-01-19T17:36:29.215Z,1.70
2023-01-19T17:38:57.909Z,1.68
2023-01-19T17:41:30.544Z,1.66
2023-01-19T17:44:00.405Z,1.64
2023-01-19T17:46:28.686Z,1.63
2023-01-19T17:49:00.620Z,1.63
2023-01-19T17:51:28.238Z,1.60
2023-01-19T17:53:55.559Z,1.61
2023-01-19T17:56:29.800Z,1.60
2023-01-19T17:58:57.832Z,1.59
2023-01-19T18:01:27.891Z,1.56
2023-01-19T18:03:55.318Z,1.52
2023-01-19T18:06:22.475Z,1.47
2023-01-19T18:08:49.908Z,1.44
2023-01-19T18:11:19.626Z,1.42
2023-01-19T18:13:48.389Z,1.41
2023-01-19T18:16:18.419Z,1.38
2023-01-19T18:18:45.167Z,1.37
2023-01-19T18:21:13.950Z,1.32
2023-01-19T18:23:43.431Z,1.32
2023-01-19T18:26:16.609Z,1.29
2023-01-19T18:28:43.597Z,1.30
2023-01-19T18:31:12.546Z,1.28
2023-01-19T18:33:39.962Z,1.26
2023-01-19T18:36:07.537Z,1.24
2023-01-19T18:38:35.113Z,1.21
2023-01-19T18:41:05.963Z,1.17
2023-01-19T18:43:33.315Z,1.13
2023-01-19T18:46:00.227Z,1.09
2023-01-19T18:48:27.042Z,1.05
2023-01-19T18:50:54.078Z,1.00
2023-01-19T18:53:21.741Z,0.98
2023-01-19T18:55:58.212Z,0.96
2023-01-19T18:58:28.589Z,0.95
2023-01-19T19:00:56.813Z,0.95
2023-01-19T19:03:23.907Z,0.96
2023-01-19T19:05:50.650Z,0.96
2023-01-19T19:08:17.733Z,0.95
2023-01-19T19:10:44.848Z,0.94
2023-01-19T19:13:16.328Z,0.92
2023-01-19T19:15:44.468Z,0.89
2023-01-19T19:18:16.367Z,0.87
2023-01-19T19:20:43.553Z,0.81
2023-01-19T19:23:11.249Z,0.78
2023-01-19T19:25:38.352Z,0.75
2023-01-19T19:28:05.245Z,0.73
2023-01-19T19:30:34.369Z,0.71
2023-01-19T19:33:01.626Z,0.70
2023-01-19T19:35:28.594Z,0.69
2023-01-19T19:37:57.652Z,0.69
2023-01-19T19:40:26.618Z,0.70
2023-01-19T19:42:54.035Z,0.68
2023-01-19T19:45:20.894Z,0.67
2023-01-19T19:47:47.778Z,0.65
2023-01-19T19:50:14.888Z,0.64
2023-01-19T19:52:42.266Z,0.61
2023-01-19T19:55:10.649Z,0.60
2023-01-19T19:57:37.676Z,0.59
2023-01-19T20:00:05.312Z,0.62
2023-01-19T20:02:32.330Z,0.64
2023-01-19T20:04:59.084Z,0.64
2023-01-19T20:07:25.976Z,0.64
2023-01-19T20:09:55.060Z,0.61
2023-01-19T20:12:21.987Z,0.62
2023-01-19T20:14:48.951Z,0.61
2023-01-19T20:17:15.772Z,0.60
2023-01-19T20:19:44.153Z,0.58
2023-01-19T20:22:10.797Z,0.55
2023-01-19T20:24:37.601Z,0.52
2023-01-19T20:27:04.430Z,0.48
2023-01-19T20:29:31.102Z,0.45
2023-01-19T20:31:58.003Z,0.44
2023-01-19T20:34:33.024Z,0.42
2023-01-19T20:37:01.810Z,0.42
2023-01-19T20:39:33.217Z,0.41
2023-01-19T20:42:00.582Z,0.39
2023-01-19T20:44:27.478Z,0.38
2023-01-19T20:46:56.414Z,0.37
2023-01-19T20:49:23.520Z,0.35
2023-01-19T20:51:52.073Z,0.34
2023-01-19T20:54:22.812Z,0.32
2023-01-19T20:56:50.611Z,0.31
2023-01-19T20:59:17.641Z,0.30
2023-01-19T21:01:45.038Z,0.29
2023-01-19T21:04:12.898Z,0.28
2023-01-19T21:06:40.761Z,0.26
2023-01-19T21:09:09.149Z,0.24
2023-01-19T21:11:38.048Z,0.23
2023-01-19T21:14:05.279Z,0.22
2023-01-19T21:16:34.172Z,0.19
2023-01-19T21:19:01.059Z,0.18
2023-01-19T21:21:31.247Z,0.16
2023-01-19T21:24:00.380Z,0.15
2023-01-19T21:26:30.053Z,0.14
2023-01-19T21:28:58.241Z,0.12
2023-01-19T21:31:27.565Z,0.09
2023-01-19T21:33:55.046Z,0.06
2023-01-19T21:36:22.554Z,0.04
2023-01-19T21:38:51.409Z,0.01
2023-01-19T21:41:19.685Z,0.00
2023-01-19T21:43:46.606Z,-0.02
2023-01-19T21:46:18.365Z,-0.03
2023-01-19T21:48:45.980Z,-0.07
2023-01-19T21:51:14.275Z,-0.08
2023-01-19T21:53:41.136Z,-0.12
2023-01-19T21:56:09.748Z,-0.14
2023-01-19T21:58:37.054Z,-0.15
2023-01-19T22:01:07.012Z,-0.18
2023-01-19T22:03:33.971Z,-0.18
2023-01-19T22:06:08.606Z,-0.20
2023-01-19T22:08:36.990Z,-0.22
2023-01-19T22:11:05.771Z,-0.24
2023-01-19T22:13:33.952Z,-0.25
2023-01-19T22:16:02.910Z,-0.27
2023-01-19T22:18:29.760Z,-0.31
2023-01-19T22:20:56.938Z,-0.32
2023-01-19T22:23:23.806Z,-0.32
2023-01-19T22:25:50.520Z,-0.32
2023-01-19T22:28:17.355Z,-0.33
2023-01-19T22:30:44.148Z,-0.35
2023-01-19T22:33:11.242Z,-0.37
2023-01-19T22:35:38.316Z,-0.39
2023-01-19T22:38:05.228Z,-0.41
2023-01-19T22:40:32.227Z,-0.42
2023-01-19T22:42:59.058Z,-0.44
2023-01-19T22:45:27.790Z,-0.44
2023-01-19T22:47:54.814Z,-0.44
2023-01-19T22:50:21.612Z,-0.44
2023-01-19T22:52:55.296Z,-0.47
2023-01-19T22:55:22.080Z,-0.49
2023-01-19T22:57:49.276Z,-0.48
2023-01-19T23:00:16.621Z,-0.49
2023-01-19T23:02:43.441Z,-0.49
2023-01-19T23:05:11.130Z,-0.50
2023-01-19T23:07:38.057Z,-0.50
2023-01-19T23:10:05.124Z,-0.50
2023-01-19T23:12:31.761Z,-0.50
2023-01-19T23:14:58.624Z,-0.50
2023-01-19T23:17:25.249Z,-0.50
2023-01-19T23:19:51.866Z,-0.49
2023-01-19T23:22:18.657Z,-0.51
2023-01-19T23:24:45.342Z,-0.49
2023-01-19T23:27:12.063Z,-0.49
2023-01-19T23:29:38.739Z,-0.48
2023-01-19T23:32:05.359Z,-0.46
2023-01-19T23:34:32.000Z,-0.44
2023-01-19T23:36:58.716Z,-0.40
2023-01-19T23:39:26.461Z,-0.36
2023-01-19T23:41:53.109Z,-0.34
2023-01-19T23:44:19.941Z,-0.30
2023-01-19T23:46:47.031Z,-0.28
2023-01-19T23:49:14.155Z,-0.25
2023-01-19T23:51:41.485Z,-0.21
2023-01-19T23:54:09.264Z,-0.18
2023-01-19T23:56:37.438Z,-0.17
2023-01-19T23:59:07.491Z,-0.16
